AAL9467 KJFK-KEWR
Flight info
| Callsign | AAL9467 |
|---|---|
| Flight time | 0h 27m |
| Altitude | 16000 |
| Route | JFK T224 DIXIE T438 RBV V249 SBJ |
| Aircraft | B77W/H-SDE1E2E3FGHIJ2J3J4J5M1RWXY/LB1D1 |
Departure
| Time | 2026-05-07 20:48 |
|---|---|
| Airport | John F. Kennedy International Airport (KJFK) |
Arrival
| Time | 2026-05-07 21:15 |
|---|---|
| Airport | Newark Liberty International Airport (KEWR) |
| Time | Latitude | Longitude | Altitude | Speed | Heading |
|---|---|---|---|---|---|
| 2026-05-07 20:20 | 40.64777 | -73.79345 | 25 ft | 0 kts | 151° |
| 2026-05-07 20:34 | 40.64795 | -73.79358 | 25 ft | 3 kts | 151° |
| 2026-05-07 20:34 | 40.64814 | -73.79372 | 23 ft | 2 kts | 151° |
| 2026-05-07 20:35 | 40.64836 | -73.79384 | 27 ft | 10 kts | 193° |
| 2026-05-07 20:35 | 40.64852 | -73.79367 | 22 ft | 4 kts | 241° |
| 2026-05-07 20:35 | 40.64864 | -73.79337 | 25 ft | 2 kts | 241° |
| 2026-05-07 20:35 | 40.64865 | -73.79335 | 24 ft | 23 kts | 241° |
| 2026-05-07 20:39 | 40.64864 | -73.79339 | 22 ft | 1 kts | 241° |
| 2026-05-07 20:39 | 40.64855 | -73.79360 | 23 ft | 5 kts | 241° |
| 2026-05-07 20:39 | 40.64830 | -73.79419 | 23 ft | 9 kts | 241° |
| 2026-05-07 20:39 | 40.64784 | -73.79526 | 25 ft | 16 kts | 240° |
| 2026-05-07 20:40 | 40.64739 | -73.79628 | 25 ft | 6 kts | 227° |
| 2026-05-07 20:40 | 40.64710 | -73.79623 | 24 ft | 5 kts | 153° |
| 2026-05-07 20:40 | 40.64663 | -73.79583 | 28 ft | 11 kts | 143° |
| 2026-05-07 20:40 | 40.64569 | -73.79513 | 29 ft | 18 kts | 163° |
| 2026-05-07 20:41 | 40.64443 | -73.79494 | 27 ft | 19 kts | 176° |
| 2026-05-07 20:41 | 40.64310 | -73.79496 | 25 ft | 19 kts | 187° |
| 2026-05-07 20:41 | 40.64174 | -73.79504 | 28 ft | 20 kts | 182° |
| 2026-05-07 20:41 | 40.64041 | -73.79511 | 31 ft | 16 kts | 182° |
| 2026-05-07 20:42 | 40.63951 | -73.79433 | 29 ft | 17 kts | 120° |
| 2026-05-07 20:42 | 40.63889 | -73.79295 | 25 ft | 18 kts | 121° |
| 2026-05-07 20:42 | 40.63823 | -73.79152 | 26 ft | 18 kts | 121° |
| 2026-05-07 20:42 | 40.63758 | -73.79009 | 26 ft | 18 kts | 121° |
| 2026-05-07 20:43 | 40.63693 | -73.78866 | 27 ft | 18 kts | 120° |
| 2026-05-07 20:43 | 40.63629 | -73.78722 | 27 ft | 18 kts | 120° |
| 2026-05-07 20:43 | 40.63564 | -73.78579 | 27 ft | 18 kts | 121° |
| 2026-05-07 20:43 | 40.63497 | -73.78436 | 27 ft | 18 kts | 121° |
| 2026-05-07 20:44 | 40.63431 | -73.78288 | 27 ft | 19 kts | 118° |
| 2026-05-07 20:44 | 40.63368 | -73.78136 | 26 ft | 19 kts | 118° |
| 2026-05-07 20:44 | 40.63326 | -73.78003 | 26 ft | 14 kts | 92° |
| 2026-05-07 20:44 | 40.63344 | -73.77901 | 26 ft | 0 kts | 75° |
| 2026-05-07 20:45 | 40.63344 | -73.77899 | 26 ft | 3 kts | 80° |
| 2026-05-07 20:45 | 40.63329 | -73.77852 | 27 ft | 8 kts | 117° |
| 2026-05-07 20:45 | 40.63272 | -73.77720 | 29 ft | 30 kts | 122° |
| 2026-05-07 20:45 | 40.63155 | -73.77470 | 27 ft | 33 kts | 120° |
| 2026-05-07 20:46 | 40.63048 | -73.77225 | 31 ft | 25 kts | 120° |
| 2026-05-07 20:46 | 40.62980 | -73.77081 | 27 ft | 9 kts | 147° |
| 2026-05-07 20:46 | 40.62917 | -73.77109 | 27 ft | 12 kts | 213° |
| 2026-05-07 20:46 | 40.62835 | -73.77175 | 27 ft | 15 kts | 214° |
| 2026-05-07 20:47 | 40.62837 | -73.77265 | 27 ft | 12 kts | 305° |
| 2026-05-07 20:47 | 40.62888 | -73.77370 | 29 ft | 28 kts | 301° |
| 2026-05-07 20:47 | 40.63169 | -73.77988 | 29 ft | 128 kts | 301° |
| 2026-05-07 20:47 | 40.63746 | -73.79252 | 353 ft | 179 kts | 303° |
| 2026-05-07 20:48 | 40.64338 | -73.80737 | 1342 ft | 184 kts | 299° |
| 2026-05-07 20:48 | 40.64901 | -73.82237 | 2395 ft | 185 kts | 294° |
| 2026-05-07 20:48 | 40.65100 | -73.84045 | 2819 ft | 222 kts | 267° |
| 2026-05-07 20:48 | 40.64472 | -73.86030 | 3248 ft | 258 kts | 228° |
| 2026-05-07 20:49 | 40.62956 | -73.87188 | 4657 ft | 230 kts | 199° |
| 2026-05-07 20:49 | 40.61580 | -73.87676 | 6468 ft | 206 kts | 199° |
| 2026-05-07 20:49 | 40.60057 | -73.88280 | 6606 ft | 251 kts | 203° |
| 2026-05-07 20:49 | 40.58304 | -73.88773 | 7334 ft | 270 kts | 183° |
| 2026-05-07 20:50 | 40.56438 | -73.88035 | 8123 ft | 291 kts | 154° |
| 2026-05-07 20:50 | 40.54648 | -73.86686 | 8871 ft | 302 kts | 156° |
| 2026-05-07 20:50 | 40.52834 | -73.85251 | 9731 ft | 306 kts | 153° |
| 2026-05-07 20:50 | 40.51573 | -73.84466 | 10251 ft | 301 kts | 173° |
| 2026-05-07 20:51 | 40.49470 | -73.84288 | 10818 ft | 312 kts | 194° |
| 2026-05-07 20:51 | 40.47340 | -73.85164 | 11135 ft | 333 kts | 214° |
| 2026-05-07 20:51 | 40.45379 | -73.86840 | 12030 ft | 339 kts | 219° |
| 2026-05-07 20:51 | 40.43450 | -73.88588 | 13565 ft | 335 kts | 219° |
| 2026-05-07 20:52 | 40.41521 | -73.90331 | 14953 ft | 340 kts | 220° |
| 2026-05-07 20:52 | 40.39567 | -73.92093 | 15795 ft | 341 kts | 220° |
| 2026-05-07 20:52 | 40.37586 | -73.93871 | 16006 ft | 353 kts | 220° |
| 2026-05-07 20:52 | 40.35527 | -73.95710 | 16013 ft | 362 kts | 220° |
| 2026-05-07 20:53 | 40.33432 | -73.97569 | 16015 ft | 364 kts | 220° |
| 2026-05-07 20:53 | 40.31340 | -73.99416 | 16010 ft | 362 kts | 220° |
| 2026-05-07 20:53 | 40.29255 | -74.01257 | 16008 ft | 362 kts | 220° |
| 2026-05-07 20:53 | 40.27168 | -74.03098 | 16013 ft | 361 kts | 220° |
| 2026-05-07 20:54 | 40.25086 | -74.04934 | 16019 ft | 361 kts | 220° |
| 2026-05-07 20:54 | 40.22991 | -74.06747 | 16020 ft | 362 kts | 218° |
| 2026-05-07 20:54 | 40.20803 | -74.08394 | 16022 ft | 364 kts | 216° |
| 2026-05-07 20:54 | 40.18589 | -74.10010 | 16018 ft | 364 kts | 216° |
| 2026-05-07 20:55 | 40.16420 | -74.11664 | 16012 ft | 354 kts | 221° |
| 2026-05-07 20:55 | 40.14683 | -74.13925 | 16025 ft | 353 kts | 238° |
| 2026-05-07 20:55 | 40.13574 | -74.16750 | 16032 ft | 349 kts | 250° |
| 2026-05-07 20:55 | 40.13003 | -74.19829 | 16023 ft | 349 kts | 259° |
| 2026-05-07 20:56 | 40.12811 | -74.22998 | 16020 ft | 352 kts | 267° |
| 2026-05-07 20:56 | 40.13261 | -74.26144 | 16013 ft | 354 kts | 284° |
| 2026-05-07 20:56 | 40.14207 | -74.29179 | 16025 ft | 365 kts | 285° |
| 2026-05-07 20:56 | 40.15156 | -74.32258 | 16020 ft | 365 kts | 285° |
| 2026-05-07 20:57 | 40.16079 | -74.35336 | 16008 ft | 363 kts | 285° |
| 2026-05-07 20:57 | 40.16984 | -74.38412 | 16005 ft | 362 kts | 284° |
| 2026-05-07 20:57 | 40.17879 | -74.41482 | 16008 ft | 362 kts | 284° |
| 2026-05-07 20:57 | 40.18752 | -74.44477 | 15999 ft | 350 kts | 285° |
| 2026-05-07 20:58 | 40.19821 | -74.47347 | 15558 ft | 356 kts | 294° |
| 2026-05-07 20:58 | 40.21263 | -74.50012 | 14961 ft | 361 kts | 300° |
| 2026-05-07 20:58 | 40.22923 | -74.52482 | 14324 ft | 363 kts | 307° |
| 2026-05-07 20:58 | 40.24856 | -74.54634 | 13678 ft | 365 kts | 313° |
| 2026-05-07 20:59 | 40.26827 | -74.56710 | 13022 ft | 362 kts | 312° |
| 2026-05-07 20:59 | 40.28764 | -74.58786 | 12403 ft | 358 kts | 312° |
| 2026-05-07 20:59 | 40.30745 | -74.60776 | 11763 ft | 362 kts | 318° |
| 2026-05-07 20:59 | 40.32928 | -74.62450 | 11102 ft | 365 kts | 325° |
| 2026-05-07 21:00 | 40.35223 | -74.63819 | 10823 ft | 358 kts | 333° |
| 2026-05-07 21:00 | 40.37539 | -74.64856 | 10641 ft | 344 kts | 335° |
| 2026-05-07 21:00 | 40.39683 | -74.65796 | 10485 ft | 312 kts | 334° |
| 2026-05-07 21:00 | 40.41699 | -74.66707 | 10359 ft | 301 kts | 334° |
| 2026-05-07 21:01 | 40.43644 | -74.67590 | 10231 ft | 291 kts | 334° |
| 2026-05-07 21:01 | 40.45524 | -74.68434 | 10108 ft | 281 kts | 334° |
| 2026-05-07 21:01 | 40.47337 | -74.69250 | 9980 ft | 271 kts | 334° |
| 2026-05-07 21:01 | 40.49122 | -74.70054 | 9668 ft | 271 kts | 334° |
| 2026-05-07 21:02 | 40.50897 | -74.70859 | 9358 ft | 269 kts | 335° |
| 2026-05-07 21:02 | 40.52661 | -74.71657 | 9051 ft | 267 kts | 336° |
| 2026-05-07 21:02 | 40.54380 | -74.72430 | 9032 ft | 256 kts | 336° |
| 2026-05-07 21:02 | 40.56053 | -74.73184 | 8996 ft | 255 kts | 336° |
| 2026-05-07 21:03 | 40.57783 | -74.73755 | 8877 ft | 262 kts | 355° |
| 2026-05-07 21:03 | 40.59577 | -74.73134 | 8653 ft | 277 kts | 26° |
| 2026-05-07 21:03 | 40.61029 | -74.71430 | 8396 ft | 284 kts | 51° |
| 2026-05-07 21:03 | 40.61866 | -74.69074 | 8043 ft | 289 kts | 76° |
| 2026-05-07 21:04 | 40.61916 | -74.66451 | 8000 ft | 288 kts | 102° |
| 2026-05-07 21:04 | 40.61399 | -74.63917 | 7987 ft | 289 kts | 97° |
| 2026-05-07 21:04 | 40.61656 | -74.61315 | 8005 ft | 290 kts | 61° |
| 2026-05-07 21:04 | 40.62936 | -74.59371 | 7992 ft | 279 kts | 26° |
| 2026-05-07 21:05 | 40.64707 | -74.58537 | 7937 ft | 266 kts | 11° |
| 2026-05-07 21:05 | 40.66333 | -74.57308 | 7482 ft | 281 kts | 44° |
| 2026-05-07 21:05 | 40.67210 | -74.54999 | 7191 ft | 288 kts | 79° |
| 2026-05-07 21:05 | 40.67027 | -74.52406 | 6900 ft | 284 kts | 109° |
| 2026-05-07 21:06 | 40.66382 | -74.50019 | 6614 ft | 274 kts | 106° |
| 2026-05-07 21:06 | 40.65866 | -74.47609 | 6331 ft | 272 kts | 104° |
| 2026-05-07 21:06 | 40.65379 | -74.45203 | 6049 ft | 272 kts | 103° |
| 2026-05-07 21:06 | 40.64890 | -74.42805 | 5766 ft | 270 kts | 104° |
| 2026-05-07 21:07 | 40.64393 | -74.40422 | 5488 ft | 269 kts | 104° |
| 2026-05-07 21:07 | 40.63894 | -74.38056 | 5207 ft | 268 kts | 104° |
| 2026-05-07 21:07 | 40.63399 | -74.35728 | 4926 ft | 267 kts | 104° |
| 2026-05-07 21:07 | 40.62898 | -74.33384 | 4650 ft | 266 kts | 104° |
| 2026-05-07 21:08 | 40.62394 | -74.31036 | 4369 ft | 268 kts | 104° |
| 2026-05-07 21:08 | 40.61889 | -74.28681 | 4177 ft | 265 kts | 104° |
| 2026-05-07 21:08 | 40.61396 | -74.26386 | 4046 ft | 257 kts | 104° |
| 2026-05-07 21:08 | 40.60916 | -74.24159 | 3932 ft | 248 kts | 104° |
| 2026-05-07 21:09 | 40.60456 | -74.22017 | 3821 ft | 238 kts | 103° |
| 2026-05-07 21:09 | 40.60436 | -74.19976 | 3714 ft | 215 kts | 64° |
| 2026-05-07 21:09 | 40.61360 | -74.18668 | 3663 ft | 186 kts | 15° |
| 2026-05-07 21:09 | 40.62570 | -74.18675 | 3500 ft | 175 kts | 342° |
| 2026-05-07 21:10 | 40.63785 | -74.18806 | 3329 ft | 182 kts | 20° |
| 2026-05-07 21:10 | 40.64655 | -74.17627 | 3308 ft | 190 kts | 71° |
| 2026-05-07 21:10 | 40.64657 | -74.15919 | 3163 ft | 185 kts | 103° |
| 2026-05-07 21:10 | 40.64182 | -74.14425 | 2929 ft | 174 kts | 121° |
| 2026-05-07 21:11 | 40.63825 | -74.12941 | 2511 ft | 175 kts | 84° |
| 2026-05-07 21:11 | 40.64104 | -74.11394 | 2188 ft | 172 kts | 80° |
| 2026-05-07 21:11 | 40.64923 | -74.08702 | 1482 ft | 152 kts | 41° |
| 2026-05-07 21:12 | 40.65787 | -74.08030 | 1132 ft | 136 kts | 37° |
| 2026-05-07 21:12 | 40.66495 | -74.07296 | 838 ft | 129 kts | 21° |
| 2026-05-07 21:12 | 40.67375 | -74.07291 | 655 ft | 131 kts | 342° |
| 2026-05-07 21:12 | 40.68214 | -74.07744 | 587 ft | 131 kts | 346° |
| 2026-05-07 21:13 | 40.69070 | -74.08196 | 504 ft | 135 kts | 322° |
| 2026-05-07 21:13 | 40.69552 | -74.09260 | 512 ft | 140 kts | 289° |
| 2026-05-07 21:13 | 40.69744 | -74.10538 | 540 ft | 146 kts | 284° |
| 2026-05-07 21:13 | 40.69872 | -74.11886 | 466 ft | 146 kts | 278° |
| 2026-05-07 21:14 | 40.69906 | -74.13272 | 359 ft | 153 kts | 276° |
| 2026-05-07 21:14 | 40.70025 | -74.14601 | 219 ft | 140 kts | 284° |
| 2026-05-07 21:14 | 40.70131 | -74.15863 | 55 ft | 139 kts | 281° |
| 2026-05-07 21:14 | 40.70211 | -74.17029 | 27 ft | 103 kts | 274° |
| 2026-05-07 21:15 | 40.70246 | -74.17591 | 27 ft | 47 kts | 275° |
| 2026-05-07 21:15 | 40.70271 | -74.17943 | 26 ft | 19 kts | 275° |
| 2026-05-07 21:15 | 40.70292 | -74.18011 | 27 ft | 13 kts | 309° |
| 2026-05-07 21:15 | 40.70355 | -74.18005 | 26 ft | 10 kts | 47° |
| 2026-05-07 21:16 | 40.70367 | -74.17909 | 25 ft | 12 kts | 95° |
| 2026-05-07 21:16 | 40.70359 | -74.17793 | 26 ft | 13 kts | 95° |
| 2026-05-07 21:16 | 40.70352 | -74.17675 | 27 ft | 13 kts | 94° |
| 2026-05-07 21:16 | 40.70344 | -74.17545 | 26 ft | 16 kts | 94° |
| 2026-05-07 21:17 | 40.70357 | -74.17465 | 23 ft | 6 kts | 43° |
| 2026-05-07 21:17 | 40.70407 | -74.17450 | 23 ft | 8 kts | 359° |
| 2026-05-07 21:17 | 40.70446 | -74.17442 | 23 ft | 3 kts | 43° |
| 2026-05-07 21:17 | 40.70447 | -74.17410 | 23 ft | 4 kts | 97° |
| 2026-05-07 21:18 | 40.70441 | -74.17360 | 23 ft | 3 kts | 99° |
| 2026-05-07 21:18 | 40.70440 | -74.17354 | 23 ft | 0 kts | 99° |